sensor_id;sensor_type;location;lat;lon;timestamp;pressure;altitude;pressure_sealevel;temperature;humidity
16525;BME280;8375;33.594;-117.718;2023-10-19T00:01:14;99879.19;;;25.66;66.13
16525;BME280;8375;33.594;-117.718;2023-10-19T00:03:42;99875.69;;;25.53;66.12
16525;BME280;8375;33.594;-117.718;2023-10-19T00:06:11;99867.81;;;25.46;66.20
16525;BME280;8375;33.594;-117.718;2023-10-19T00:08:41;99887.88;;;25.42;66.49
16525;BME280;8375;33.594;-117.718;2023-10-19T00:11:09;99886.31;;;25.34;67.30
16525;BME280;8375;33.594;-117.718;2023-10-19T00:13:48;99891.94;;;25.08;67.84
16525;BME280;8375;33.594;-117.718;2023-10-19T00:16:17;99892.09;;;24.75;69.22
16525;BME280;8375;33.594;-117.718;2023-10-19T00:18:49;99889.88;;;24.47;70.50
16525;BME280;8375;33.594;-117.718;2023-10-19T00:21:18;99889.44;;;24.25;71.35
16525;BME280;8375;33.594;-117.718;2023-10-19T00:23:49;99891.22;;;23.99;73.10
16525;BME280;8375;33.594;-117.718;2023-10-19T00:26:22;99891.91;;;23.87;73.77
16525;BME280;8375;33.594;-117.718;2023-10-19T00:28:51;99900.13;;;23.79;74.42
16525;BME280;8375;33.594;-117.718;2023-10-19T00:31:22;99896.00;;;23.83;74.30
16525;BME280;8375;33.594;-117.718;2023-10-19T00:33:51;99903.72;;;23.92;74.21
16525;BME280;8375;33.594;-117.718;2023-10-19T00:36:21;99903.34;;;23.88;73.99
16525;BME280;8375;33.594;-117.718;2023-10-19T00:38:51;99904.03;;;23.70;74.89
16525;BME280;8375;33.594;-117.718;2023-10-19T00:41:21;99907.53;;;23.64;75.38
16525;BME280;8375;33.594;-117.718;2023-10-19T00:43:55;99918.44;;;23.42;75.52
16525;BME280;8375;33.594;-117.718;2023-10-19T00:46:29;99919.91;;;23.24;76.25
16525;BME280;8375;33.594;-117.718;2023-10-19T00:49:05;99922.97;;;23.14;76.56
16525;BME280;8375;33.594;-117.718;2023-10-19T00:51:38;99924.84;;;23.00;77.49
16525;BME280;8375;33.594;-117.718;2023-10-19T00:54:23;99927.13;;;22.63;79.08
16525;BME280;8375;33.594;-117.718;2023-10-19T00:56:58;99925.44;;;22.28;80.68
16525;BME280;8375;33.594;-117.718;2023-10-19T00:59:31;99934.13;;;21.89;82.84
16525;BME280;8375;33.594;-117.718;2023-10-19T01:02:02;99936.03;;;21.60;85.01
16525;BME280;8375;33.594;-117.718;2023-10-19T01:04:44;99936.53;;;21.35;86.91
16525;BME280;8375;33.594;-117.718;2023-10-19T01:07:17;99930.19;;;21.22;87.70
16525;BME280;8375;33.594;-117.718;2023-10-19T01:09:56;99930.59;;;20.98;89.40
16525;BME280;8375;33.594;-117.718;2023-10-19T01:12:26;99944.19;;;20.73;90.98
16525;BME280;8375;33.594;-117.718;2023-10-19T01:15:04;99946.47;;;20.76;91.26
16525;BME280;8375;33.594;-117.718;2023-10-19T01:17:35;99945.41;;;20.70;91.49
16525;BME280;8375;33.594;-117.718;2023-10-19T01:20:08;99948.09;;;20.77;92.40
16525;BME280;8375;33.594;-117.718;2023-10-19T01:22:50;99966.53;;;20.48;92.75
16525;BME280;8375;33.594;-117.718;2023-10-19T01:25:20;99955.34;;;20.25;94.41
16525;BME280;8375;33.594;-117.718;2023-10-19T01:28:06;99962.25;;;20.26;94.63
16525;BME280;8375;33.594;-117.718;2023-10-19T01:30:36;99962.56;;;20.16;95.94
16525;BME280;8375;33.594;-117.718;2023-10-19T01:33:05;99969.03;;;20.35;95.60
16525;BME280;8375;33.594;-117.718;2023-10-19T01:35:39;99975.00;;;20.44;96.16
16525;BME280;8375;33.594;-117.718;2023-10-19T01:38:22;99981.84;;;20.38;94.76
16525;BME280;8375;33.594;-117.718;2023-10-19T01:40:51;99974.06;;;19.93;96.71
16525;BME280;8375;33.594;-117.718;2023-10-19T01:43:21;99979.22;;;20.01;97.88
16525;BME280;8375;33.594;-117.718;2023-10-19T01:45:48;99986.31;;;20.01;98.96
16525;BME280;8375;33.594;-117.718;2023-10-19T01:48:20;99988.47;;;20.12;98.85
16525;BME280;8375;33.594;-117.718;2023-10-19T01:50:54;99989.72;;;20.16;97.28
16525;BME280;8375;33.594;-117.718;2023-10-19T01:53:25;99987.72;;;20.18;98.46
16525;BME280;8375;33.594;-117.718;2023-10-19T01:55:55;99989.53;;;20.18;97.91
16525;BME280;8375;33.594;-117.718;2023-10-19T01:58:25;99982.09;;;20.21;98.08
16525;BME280;8375;33.594;-117.718;2023-10-19T02:00:54;99987.03;;;20.31;97.38
16525;BME280;8375;33.594;-117.718;2023-10-19T02:03:26;99991.56;;;20.37;95.94
16525;BME280;8375;33.594;-117.718;2023-10-19T02:05:58;99994.41;;;20.36;95.42
16525;BME280;8375;33.594;-117.718;2023-10-19T02:08:34;99997.47;;;20.40;95.81
16525;BME280;8375;33.594;-117.718;2023-10-19T02:11:05;99985.66;;;20.35;95.12
16525;BME280;8375;33.594;-117.718;2023-10-19T02:13:43;99992.75;;;20.13;95.31
16525;BME280;8375;33.594;-117.718;2023-10-19T02:16:13;99997.41;;;19.96;96.45
16525;BME280;8375;33.594;-117.718;2023-10-19T02:18:43;100005.31;;;19.81;97.54
16525;BME280;8375;33.594;-117.718;2023-10-19T02:21:11;100001.56;;;19.75;98.22
16525;BME280;8375;33.594;-117.718;2023-10-19T02:23:41;100012.84;;;19.69;98.85
16525;BME280;8375;33.594;-117.718;2023-10-19T02:26:10;100005.66;;;19.63;99.63
16525;BME280;8375;33.594;-117.718;2023-10-19T02:28:40;100005.97;;;19.53;99.87
16525;BME280;8375;33.594;-117.718;2023-10-19T02:31:10;100008.22;;;19.41;100.00
16525;BME280;8375;33.594;-117.718;2023-10-19T02:33:42;100009.56;;;19.37;100.00
16525;BME280;8375;33.594;-117.718;2023-10-19T02:36:18;100015.38;;;19.32;100.00
16525;BME280;8375;33.594;-117.718;2023-10-19T02:38:49;100019.75;;;19.25;100.00
16525;BME280;8375;33.594;-117.718;2023-10-19T02:41:18;100019.63;;;19.18;100.00
16525;BME280;8375;33.594;-117.718;2023-10-19T02:43:47;100024.69;;;19.05;100.00
16525;BME280;8375;33.594;-117.718;2023-10-19T02:46:17;100015.19;;;18.96;100.00
16525;BME280;8375;33.594;-117.718;2023-10-19T02:48:47;100020.34;;;18.89;100.00
16525;BME280;8375;33.594;-117.718;2023-10-19T02:51:16;100021.22;;;18.81;100.00
16525;BME280;8375;33.594;-117.718;2023-10-19T02:53:45;100028.75;;;18.84;100.00
16525;BME280;8375;33.594;-117.718;2023-10-19T02:56:16;100025.13;;;18.85;100.00
16525;BME280;8375;33.594;-117.718;2023-10-19T02:58:46;100030.75;;;18.82;100.00
16525;BME280;8375;33.594;-117.718;2023-10-19T03:01:16;100025.69;;;18.81;100.00
16525;BME280;8375;33.594;-117.718;2023-10-19T03:03:49;100029.94;;;18.82;100.00
16525;BME280;8375;33.594;-117.718;2023-10-19T03:06:21;100045.81;;;18.88;100.00
16525;BME280;8375;33.594;-117.718;2023-10-19T03:08:50;100032.38;;;18.83;100.00
16525;BME280;8375;33.594;-117.718;2023-10-19T03:11:25;100037.63;;;18.83;100.00
16525;BME280;8375;33.594;-117.718;2023-10-19T03:13:54;100046.94;;;18.71;100.00
16525;BME280;8375;33.594;-117.718;2023-10-19T03:16:24;100046.28;;;18.69;100.00
16525;BME280;8375;33.594;-117.718;2023-10-19T03:18:54;100052.19;;;18.71;100.00
16525;BME280;8375;33.594;-117.718;2023-10-19T03:21:23;100050.09;;;18.66;100.00
16525;BME280;8375;33.594;-117.718;2023-10-19T03:23:53;100048.13;;;18.68;100.00
16525;BME280;8375;33.594;-117.718;2023-10-19T03:26:23;100047.47;;;18.66;100.00
16525;BME280;8375;33.594;-117.718;2023-10-19T03:28:58;100049.81;;;18.61;100.00
16525;BME280;8375;33.594;-117.718;2023-10-19T03:31:30;100050.31;;;18.56;100.00
16525;BME280;8375;33.594;-117.718;2023-10-19T03:33:59;100055.72;;;18.55;100.00
16525;BME280;8375;33.594;-117.718;2023-10-19T03:36:31;100050.81;;;18.52;100.00
16525;BME280;8375;33.594;-117.718;2023-10-19T03:39:00;100051.31;;;18.55;100.00
16525;BME280;8375;33.594;-117.718;2023-10-19T03:41:38;100061.19;;;18.53;100.00
16525;BME280;8375;33.594;-117.718;2023-10-19T03:44:10;100066.78;;;18.50;100.00
16525;BME280;8375;33.594;-117.718;2023-10-19T03:46:45;100063.81;;;18.53;100.00
16525;BME280;8375;33.594;-117.718;2023-10-19T03:49:24;100066.78;;;18.50;100.00
16525;BME280;8375;33.594;-117.718;2023-10-19T03:51:57;100066.53;;;18.37;100.00
16525;BME280;8375;33.594;-117.718;2023-10-19T03:54:46;100070.09;;;18.44;100.00
16525;BME280;8375;33.594;-117.718;2023-10-19T03:57:16;100069.81;;;18.39;100.00
16525;BME280;8375;33.594;-117.718;2023-10-19T03:59:51;100070.59;;;18.39;100.00
16525;BME280;8375;33.594;-117.718;2023-10-19T04:02:27;100073.28;;;18.31;100.00
16525;BME280;8375;33.594;-117.718;2023-10-19T04:05:01;100072.47;;;18.30;100.00
16525;BME280;8375;33.594;-117.718;2023-10-19T04:07:31;100077.41;;;18.25;100.00
16525;BME280;8375;33.594;-117.718;2023-10-19T04:10:00;100073.84;;;18.18;100.00
16525;BME280;8375;33.594;-117.718;2023-10-19T04:12:36;100081.72;;;18.18;100.00
16525;BME280;8375;33.594;-117.718;2023-10-19T04:15:10;100089.63;;;18.10;100.00
16525;BME280;8375;33.594;-117.718;2023-10-19T04:17:58;100095.19;;;18.15;100.00
16525;BME280;8375;33.594;-117.718;2023-10-19T04:20:50;100093.25;;;18.09;100.00
16525;BME280;8375;33.594;-117.718;2023-10-19T04:23:48;100094.25;;;18.08;100.00
16525;BME280;8375;33.594;-117.718;2023-10-19T04:29:36;100105.06;;;18.13;100.00
16525;BME280;8375;33.594;-117.718;2023-10-19T04:32:14;100109.34;;;18.06;100.00
16525;BME280;8375;33.594;-117.718;2023-10-19T04:34:51;100100.63;;;18.05;100.00
16525;BME280;8375;33.594;-117.718;2023-10-19T04:37:21;100105.88;;;18.05;100.00
16525;BME280;8375;33.594;-117.718;2023-10-19T04:39:50;100107.72;;;18.05;100.00
16525;BME280;8375;33.594;-117.718;2023-10-19T04:42:20;100105.88;;;18.05;100.00
16525;BME280;8375;33.594;-117.718;2023-10-19T04:44:49;100106.06;;;18.03;100.00
16525;BME280;8375;33.594;-117.718;2023-10-19T04:47:20;100104.75;;;18.08;100.00
16525;BME280;8375;33.594;-117.718;2023-10-19T04:49:49;100111.31;;;18.03;100.00
16525;BME280;8375;33.594;-117.718;2023-10-19T04:52:18;100102.78;;;18.10;100.00
16525;BME280;8375;33.594;-117.718;2023-10-19T04:54:46;100108.19;;;18.08;100.00
16525;BME280;8375;33.594;-117.718;2023-10-19T04:57:15;100101.81;;;18.02;100.00
16525;BME280;8375;33.594;-117.718;2023-10-19T04:59:44;100107.22;;;17.93;100.00
16525;BME280;8375;33.594;-117.718;2023-10-19T05:02:13;100114.09;;;17.94;100.00
16525;BME280;8375;33.594;-117.718;2023-10-19T05:04:43;100110.16;;;17.89;100.00
16525;BME280;8375;33.594;-117.718;2023-10-19T05:07:13;100104.59;;;17.93;100.00
16525;BME280;8375;33.594;-117.718;2023-10-19T05:09:43;100105.56;;;18.00;100.00
16525;BME280;8375;33.594;-117.718;2023-10-19T05:12:13;100100.97;;;18.02;100.00
16525;BME280;8375;33.594;-117.718;2023-10-19T05:14:43;100101.97;;;18.01;100.00
16525;BME280;8375;33.594;-117.718;2023-10-19T05:17:12;100102.44;;;17.96;100.00
16525;BME280;8375;33.594;-117.718;2023-10-19T05:19:42;100104.75;;;17.99;100.00
16525;BME280;8375;33.594;-117.718;2023-10-19T05:22:12;100104.44;;;18.02;100.00
16525;BME280;8375;33.594;-117.718;2023-10-19T05:24:41;100095.72;;;18.02;100.00
16525;BME280;8375;33.594;-117.718;2023-10-19T05:27:10;100091.31;;;18.02;100.00
16525;BME280;8375;33.594;-117.718;2023-10-19T05:29:39;100090.66;;;18.00;100.00
16525;BME280;8375;33.594;-117.718;2023-10-19T05:32:11;100097.53;;;18.01;100.00
16525;BME280;8375;33.594;-117.718;2023-10-19T05:34:40;100097.19;;;17.96;100.00
16525;BME280;8375;33.594;-117.718;2023-10-19T05:37:10;100101.16;;;18.00;100.00
16525;BME280;8375;33.594;-117.718;2023-10-19T05:39:39;100097.34;;;18.03;100.00
16525;BME280;8375;33.594;-117.718;2023-10-19T05:42:08;100088.03;;;18.00;100.00
16525;BME280;8375;33.594;-117.718;2023-10-19T05:44:37;100085.88;;;17.96;100.00
16525;BME280;8375;33.594;-117.718;2023-10-19T05:47:06;100084.72;;;18.07;100.00
16525;BME280;8375;33.594;-117.718;2023-10-19T05:49:35;100092.59;;;18.07;100.00
16525;BME280;8375;33.594;-117.718;2023-10-19T05:52:04;100093.59;;;18.06;100.00
16525;BME280;8375;33.594;-117.718;2023-10-19T05:54:35;100097.34;;;18.03;100.00
16525;BME280;8375;33.594;-117.718;2023-10-19T05:57:04;100097.84;;;18.07;100.00
16525;BME280;8375;33.594;-117.718;2023-10-19T05:59:35;100100.44;;;18.15;100.00
16525;BME280;8375;33.594;-117.718;2023-10-19T06:02:04;100095.50;;;18.20;100.00
16525;BME280;8375;33.594;-117.718;2023-10-19T06:04:33;100101.25;;;18.15;100.00
16525;BME280;8375;33.594;-117.718;2023-10-19T06:07:02;100102.25;;;18.14;100.00
16525;BME280;8375;33.594;-117.718;2023-10-19T06:09:32;100096.50;;;18.19;100.00
16525;BME280;8375;33.594;-117.718;2023-10-19T06:12:02;100093.22;;;18.17;100.00
16525;BME280;8375;33.594;-117.718;2023-10-19T06:14:31;100091.41;;;18.17;100.00
16525;BME280;8375;33.594;-117.718;2023-10-19T06:17:00;100087.94;;;18.25;100.00
16525;BME280;8375;33.594;-117.718;2023-10-19T06:19:29;100086.75;;;18.28;100.00
16525;BME280;8375;33.594;-117.718;2023-10-19T06:25:04;100084.00;;;18.21;100.00
16525;BME280;8375;33.594;-117.718;2023-10-19T06:30:51;100077.91;;;18.21;100.00
16525;BME280;8375;33.594;-117.718;2023-10-19T06:33:27;100079.56;;;18.22;100.00
16525;BME280;8375;33.594;-117.718;2023-10-19T06:35:59;100080.09;;;18.17;100.00
16525;BME280;8375;33.594;-117.718;2023-10-19T06:38:30;100093.56;;;18.14;100.00
16525;BME280;8375;33.594;-117.718;2023-10-19T06:41:00;100090.31;;;18.03;100.00
16525;BME280;8375;33.594;-117.718;2023-10-19T06:43:34;100085.53;;;17.99;100.00
16525;BME280;8375;33.594;-117.718;2023-10-19T06:46:13;100077.97;;;17.96;100.00
16525;BME280;8375;33.594;-117.718;2023-10-19T06:48:43;100082.44;;;17.95;100.00
16525;BME280;8375;33.594;-117.718;2023-10-19T06:51:17;100102.50;;;17.80;100.00
16525;BME280;8375;33.594;-117.718;2023-10-19T06:53:53;100094.97;;;17.77;100.00
16525;BME280;8375;33.594;-117.718;2023-10-19T06:56:22;100093.31;;;17.76;100.00
16525;BME280;8375;33.594;-117.718;2023-10-19T06:58:54;100095.44;;;17.72;100.00
16525;BME280;8375;33.594;-117.718;2023-10-19T07:01:30;100086.59;;;17.73;100.00
16525;BME280;8375;33.594;-117.718;2023-10-19T07:04:10;100086.75;;;17.71;100.00
16525;BME280;8375;33.594;-117.718;2023-10-19T07:06:39;100085.25;;;17.77;100.00
16525;BME280;8375;33.594;-117.718;2023-10-19T07:09:08;100084.47;;;17.77;100.00
16525;BME280;8375;33.594;-117.718;2023-10-19T07:11:37;100084.94;;;17.80;100.00
16525;BME280;8375;33.594;-117.718;2023-10-19T07:14:06;100076.06;;;17.81;100.00
16525;BME280;8375;33.594;-117.718;2023-10-19T07:16:39;100080.16;;;17.84;100.00
16525;BME280;8375;33.594;-117.718;2023-10-19T07:19:08;100082.78;;;17.92;100.00
16525;BME280;8375;33.594;-117.718;2023-10-19T07:21:36;100076.69;;;17.92;100.00
16525;BME280;8375;33.594;-117.718;2023-10-19T07:24:09;100077.97;;;17.96;100.00
16525;BME280;8375;33.594;-117.718;2023-10-19T07:26:38;100083.09;;;17.97;100.00
16525;BME280;8375;33.594;-117.718;2023-10-19T07:29:18;100075.53;;;18.02;100.00
16525;BME280;8375;33.594;-117.718;2023-10-19T07:31:48;100082.25;;;18.05;100.00
16525;BME280;8375;33.594;-117.718;2023-10-19T07:34:22;100076.84;;;17.98;100.00
16525;BME280;8375;33.594;-117.718;2023-10-19T07:36:55;100080.47;;;17.97;100.00
16525;BME280;8375;33.594;-117.718;2023-10-19T07:39:25;100086.06;;;18.02;100.00
16525;BME280;8375;33.594;-117.718;2023-10-19T07:41:56;100081.94;;;18.00;100.00
16525;BME280;8375;33.594;-117.718;2023-10-19T07:44:24;100084.22;;;18.03;100.00
16525;BME280;8375;33.594;-117.718;2023-10-19T07:46:58;100079.81;;;18.03;100.00
16525;BME280;8375;33.594;-117.718;2023-10-19T07:49:27;100071.75;;;18.05;100.00
16525;BME280;8375;33.594;-117.718;2023-10-19T07:51:55;100070.09;;;18.04;100.00
16525;BME280;8375;33.594;-117.718;2023-10-19T07:54:25;100069.13;;;18.05;100.00
16525;BME280;8375;33.594;-117.718;2023-10-19T07:56:55;100076.84;;;18.07;100.00
16525;BME280;8375;33.594;-117.718;2023-10-19T07:59:24;100079.94;;;18.10;100.00
16525;BME280;8375;33.594;-117.718;2023-10-19T08:01:52;100079.59;;;18.13;100.00
16525;BME280;8375;33.594;-117.718;2023-10-19T08:04:23;100079.09;;;18.18;100.00
16525;BME280;8375;33.594;-117.718;2023-10-19T08:06:52;100081.22;;;18.14;100.00
16525;BME280;8375;33.594;-117.718;2023-10-19T08:09:22;100084.38;;;18.10;100.00
16525;BME280;8375;33.594;-117.718;2023-10-19T08:11:51;100082.91;;;18.07;100.00
16525;BME280;8375;33.594;-117.718;2023-10-19T08:14:22;100092.75;;;18.05;100.00
16525;BME280;8375;33.594;-117.718;2023-10-19T08:16:52;100087.69;;;18.03;100.00
16525;BME280;8375;33.594;-117.718;2023-10-19T08:19:24;100086.84;;;18.03;100.00
16525;BME280;8375;33.594;-117.718;2023-10-19T08:21:54;100082.44;;;18.03;100.00
16525;BME280;8375;33.594;-117.718;2023-10-19T08:24:24;100089.31;;;17.96;100.00
16525;BME280;8375;33.594;-117.718;2023-10-19T08:27:13;100091.75;;;17.98;100.00
16525;BME280;8375;33.594;-117.718;2023-10-19T08:29:45;100095.22;;;17.98;100.00
16525;BME280;8375;33.594;-117.718;2023-10-19T08:32:15;100095.38;;;18.05;100.00
16525;BME280;8375;33.594;-117.718;2023-10-19T08:34:45;100099.66;;;18.06;100.00
16525;BME280;8375;33.594;-117.718;2023-10-19T08:37:14;100091.63;;;18.08;100.00
16525;BME280;8375;33.594;-117.718;2023-10-19T08:39:43;100089.31;;;18.05;100.00
16525;BME280;8375;33.594;-117.718;2023-10-19T08:42:12;100095.56;;;18.03;100.00
16525;BME280;8375;33.594;-117.718;2023-10-19T08:44:40;100089.47;;;18.03;100.00
16525;BME280;8375;33.594;-117.718;2023-10-19T08:47:09;100093.75;;;18.04;100.00
16525;BME280;8375;33.594;-117.718;2023-10-19T08:49:38;100087.69;;;18.03;100.00
16525;BME280;8375;33.594;-117.718;2023-10-19T08:52:09;100091.75;;;18.06;100.00
16525;BME280;8375;33.594;-117.718;2023-10-19T08:54:39;100085.53;;;18.07;100.00
16525;BME280;8375;33.594;-117.718;2023-10-19T08:57:09;100083.44;;;18.02;100.00
16525;BME280;8375;33.594;-117.718;2023-10-19T08:59:38;100085.41;;;18.00;100.00
16525;BME280;8375;33.594;-117.718;2023-10-19T09:02:07;100083.56;;;17.93;100.00
16525;BME280;8375;33.594;-117.718;2023-10-19T09:04:42;100083.47;;;17.78;100.00
16525;BME280;8375;33.594;-117.718;2023-10-19T09:07:12;100072.13;;;17.77;100.00
16525;BME280;8375;33.594;-117.718;2023-10-19T09:09:41;100077.56;;;17.76;100.00
16525;BME280;8375;33.594;-117.718;2023-10-19T09:12:13;100074.97;;;17.67;100.00
16525;BME280;8375;33.594;-117.718;2023-10-19T09:14:43;100072.81;;;17.63;100.00
16525;BME280;8375;33.594;-117.718;2023-10-19T09:17:12;100080.03;;;17.69;100.00
16525;BME280;8375;33.594;-117.718;2023-10-19T09:19:42;100072.00;;;17.70;100.00
16525;BME280;8375;33.594;-117.718;2023-10-19T09:22:15;100074.78;;;17.69;100.00
16525;BME280;8375;33.594;-117.718;2023-10-19T09:24:49;100072.03;;;17.62;100.00
16525;BME280;8375;33.594;-117.718;2023-10-19T09:27:20;100070.84;;;17.65;100.00
16525;BME280;8375;33.594;-117.718;2023-10-19T09:29:49;100072.03;;;17.62;100.00
16525;BME280;8375;33.594;-117.718;2023-10-19T09:32:18;100070.38;;;17.61;100.00
16525;BME280;8375;33.594;-117.718;2023-10-19T09:34:47;100075.44;;;17.63;100.00
16525;BME280;8375;33.594;-117.718;2023-10-19T09:37:22;100065.94;;;17.62;100.00
16525;BME280;8375;33.594;-117.718;2023-10-19T09:39:52;100075.63;;;17.69;100.00
16525;BME280;8375;33.594;-117.718;2023-10-19T09:42:22;100073.00;;;17.69;100.00
16525;BME280;8375;33.594;-117.718;2023-10-19T09:45:00;100065.78;;;17.63;100.00
16525;BME280;8375;33.594;-117.718;2023-10-19T09:47:37;100072.50;;;17.57;100.00
16525;BME280;8375;33.594;-117.718;2023-10-19T09:50:07;100067.94;;;17.51;100.00
16525;BME280;8375;33.594;-117.718;2023-10-19T09:52:39;100062.34;;;17.54;100.00
16525;BME280;8375;33.594;-117.718;2023-10-19T09:55:14;100055.97;;;17.57;100.00
16525;BME280;8375;33.594;-117.718;2023-10-19T09:57:50;100060.25;;;17.50;100.00
16525;BME280;8375;33.594;-117.718;2023-10-19T10:00:20;100055.97;;;17.49;100.00
16525;BME280;8375;33.594;-117.718;2023-10-19T10:02:51;100059.25;;;17.51;100.00
16525;BME280;8375;33.594;-117.718;2023-10-19T10:05:46;100057.63;;;17.50;100.00
16525;BME280;8375;33.594;-117.718;2023-10-19T10:08:36;100047.13;;;17.50;100.00
16525;BME280;8375;33.594;-117.718;2023-10-19T10:11:20;100047.13;;;17.50;100.00
16525;BME280;8375;33.594;-117.718;2023-10-19T10:13:50;100054.66;;;17.53;100.00
16525;BME280;8375;33.594;-117.718;2023-10-19T10:16:21;100047.78;;;17.52;100.00
16525;BME280;8375;33.594;-117.718;2023-10-19T10:18:51;100052.19;;;17.51;100.00
16525;BME280;8375;33.594;-117.718;2023-10-19T10:21:23;100048.44;;;17.45;100.00
16525;BME280;8375;33.594;-117.718;2023-10-19T10:23:55;100051.22;;;17.44;100.00
16525;BME280;8375;33.594;-117.718;2023-10-19T10:26:25;100043.19;;;17.37;100.00
16525;BME280;8375;33.594;-117.718;2023-10-19T10:29:09;100048.59;;;17.36;100.00
16525;BME280;8375;33.594;-117.718;2023-10-19T10:31:42;100045.50;;;17.40;100.00
16525;BME280;8375;33.594;-117.718;2023-10-19T10:34:44;100039.09;;;17.35;100.00
16525;BME280;8375;33.594;-117.718;2023-10-19T10:37:15;100041.72;;;17.35;100.00
16525;BME280;8375;33.594;-117.718;2023-10-19T10:39:45;100041.91;;;17.33;100.00
16525;BME280;8375;33.594;-117.718;2023-10-19T10:42:17;100041.38;;;17.38;100.00
16525;BME280;8375;33.594;-117.718;2023-10-19T10:44:46;100033.19;;;17.41;100.00
16525;BME280;8375;33.594;-117.718;2023-10-19T10:47:19;100030.88;;;17.46;100.00
16525;BME280;8375;33.594;-117.718;2023-10-19T10:49:50;100030.72;;;17.48;100.00
16525;BME280;8375;33.594;-117.718;2023-10-19T10:52:29;100027.75;;;17.51;100.00
16525;BME280;8375;33.594;-117.718;2023-10-19T10:55:07;100031.84;;;17.45;100.00
16525;BME280;8375;33.594;-117.718;2023-10-19T10:57:38;100030.06;;;17.45;100.00
16525;BME280;8375;33.594;-117.718;2023-10-19T11:00:08;100025.63;;;17.46;100.00
16525;BME280;8375;33.594;-117.718;2023-10-19T11:02:42;100032.03;;;17.43;100.00
16525;BME280;8375;33.594;-117.718;2023-10-19T11:05:12;100034.00;;;17.41;100.00
16525;BME280;8375;33.594;-117.718;2023-10-19T11:08:06;100038.75;;;17.46;100.00
16525;BME280;8375;33.594;-117.718;2023-10-19T11:10:37;100036.31;;;17.44;100.00
16525;BME280;8375;33.594;-117.718;2023-10-19T11:13:06;100042.53;;;17.43;100.00
16525;BME280;8375;33.594;-117.718;2023-10-19T11:15:36;100045.81;;;17.45;100.00
16525;BME280;8375;33.594;-117.718;2023-10-19T11:18:05;100034.16;;;17.40;100.00
16525;BME280;8375;33.594;-117.718;2023-10-19T11:20:35;100028.44;;;17.36;100.00
16525;BME280;8375;33.594;-117.718;2023-10-19T11:23:04;100034.34;;;17.38;100.00
16525;BME280;8375;33.594;-117.718;2023-10-19T11:25:33;100026.78;;;17.43;100.00
16525;BME280;8375;33.594;-117.718;2023-10-19T11:28:17;100024.50;;;17.40;100.00
16525;BME280;8375;33.594;-117.718;2023-10-19T11:30:47;100027.47;;;17.37;100.00
16525;BME280;8375;33.594;-117.718;2023-10-19T11:33:15;100026.16;;;17.33;100.00
16525;BME280;8375;33.594;-117.718;2023-10-19T11:35:48;100029.91;;;17.39;100.00
16525;BME280;8375;33.594;-117.718;2023-10-19T11:38:17;100031.06;;;17.44;100.00
16525;BME280;8375;33.594;-117.718;2023-10-19T11:40:46;100029.22;;;17.45;100.00
16525;BME280;8375;33.594;-117.718;2023-10-19T11:43:16;100021.22;;;17.38;100.00
16525;BME280;8375;33.594;-117.718;2023-10-19T11:45:46;100022.22;;;17.29;100.00
16525;BME280;8375;33.594;-117.718;2023-10-19T11:48:15;100027.81;;;17.18;100.00
16525;BME280;8375;33.594;-117.718;2023-10-19T11:50:43;100022.06;;;17.06;100.00
16525;BME280;8375;33.594;-117.718;2023-10-19T11:53:12;100020.13;;;16.99;100.00
16525;BME280;8375;33.594;-117.718;2023-10-19T11:55:41;100027.66;;;17.03;100.00
16525;BME280;8375;33.594;-117.718;2023-10-19T11:58:09;100021.09;;;17.07;100.00
16525;BME280;8375;33.594;-117.718;2023-10-19T12:00:42;100017.66;;;17.06;100.00
16525;BME280;8375;33.594;-117.718;2023-10-19T12:03:13;100016.03;;;17.05;100.00
16525;BME280;8375;33.594;-117.718;2023-10-19T12:05:41;100014.38;;;17.04;100.00
16525;BME280;8375;33.594;-117.718;2023-10-19T12:08:10;100014.53;;;17.03;100.00
16525;BME280;8375;33.594;-117.718;2023-10-19T12:10:39;100013.72;;;16.94;100.00
16525;BME280;8375;33.594;-117.718;2023-10-19T12:13:07;100015.34;;;16.95;100.00
16525;BME280;8375;33.594;-117.718;2023-10-19T12:15:36;100022.22;;;16.88;100.00
16525;BME280;8375;33.594;-117.718;2023-10-19T12:18:06;100026.81;;;16.85;100.00
16525;BME280;8375;33.594;-117.718;2023-10-19T12:20:37;100025.19;;;16.84;100.00
16525;BME280;8375;33.594;-117.718;2023-10-19T12:23:06;100027.63;;;16.86;100.00
16525;BME280;8375;33.594;-117.718;2023-10-19T12:25:34;100022.38;;;16.86;100.00
16525;BME280;8375;33.594;-117.718;2023-10-19T12:28:05;100023.22;;;16.78;100.00
16525;BME280;8375;33.594;-117.718;2023-10-19T12:30:33;100022.22;;;16.79;100.00
16525;BME280;8375;33.594;-117.718;2023-10-19T12:33:07;100022.56;;;16.84;100.00
16525;BME280;8375;33.594;-117.718;2023-10-19T12:35:38;100027.16;;;16.91;100.00
16525;BME280;8375;33.594;-117.718;2023-10-19T12:38:16;100022.06;;;16.97;100.00
16525;BME280;8375;33.594;-117.718;2023-10-19T12:40:47;100025.97;;;16.93;100.00
16525;BME280;8375;33.594;-117.718;2023-10-19T12:43:17;100030.91;;;16.88;100.00
16525;BME280;8375;33.594;-117.718;2023-10-19T12:45:48;100034.69;;;16.94;100.00
16525;BME280;8375;33.594;-117.718;2023-10-19T12:48:24;100030.56;;;16.91;100.00
16525;BME280;8375;33.594;-117.718;2023-10-19T12:50:56;100027.94;;;16.83;100.00
16525;BME280;8375;33.594;-117.718;2023-10-19T12:53:25;100030.75;;;16.81;100.00
16525;BME280;8375;33.594;-117.718;2023-10-19T12:55:54;100032.38;;;16.74;100.00